sensor_id;sensor_type;location;lat;lon;timestamp;pressure;altitude;pressure_sealevel;temperature;humidity
49194;BME280;35029;50.804;12.866;2023-05-27T00:00:56;98766.78;;;8.79;77.77
49194;BME280;35029;50.804;12.866;2023-05-27T00:03:21;98787.84;;;8.97;77.59
49194;BME280;35029;50.804;12.866;2023-05-27T00:05:47;98791.63;;;8.86;77.86
49194;BME280;35029;50.804;12.866;2023-05-27T00:08:12;98785.66;;;8.84;78.41
49194;BME280;35029;50.804;12.866;2023-05-27T00:10:38;98788.66;;;8.89;78.81
49194;BME280;35029;50.804;12.866;2023-05-27T00:13:03;98791.28;;;8.89;77.53
49194;BME280;35029;50.804;12.866;2023-05-27T00:15:29;98769.06;;;8.74;77.79
49194;BME280;35029;50.804;12.866;2023-05-27T00:17:58;98796.63;;;8.63;77.04
49194;BME280;35029;50.804;12.866;2023-05-27T00:20:25;98771.22;;;8.44;79.19
49194;BME280;35029;50.804;12.866;2023-05-27T00:22:51;98774.53;;;8.46;79.41
49194;BME280;35029;50.804;12.866;2023-05-27T00:25:17;98761.56;;;8.35;78.94
49194;BME280;35029;50.804;12.866;2023-05-27T00:27:46;98758.09;;;8.34;78.76
49194;BME280;35029;50.804;12.866;2023-05-27T00:30:12;98787.44;;;8.49;79.01
49194;BME280;35029;50.804;12.866;2023-05-27T00:32:38;98769.94;;;8.30;79.05
49194;BME280;35029;50.804;12.866;2023-05-27T00:35:04;98783.53;;;8.35;80.02
49194;BME280;35029;50.804;12.866;2023-05-27T00:37:29;98788.44;;;8.30;79.91
49194;BME280;35029;50.804;12.866;2023-05-27T00:39:55;98784.16;;;8.29;80.85
49194;BME280;35029;50.804;12.866;2023-05-27T00:42:23;98790.94;;;8.32;79.80
49194;BME280;35029;50.804;12.866;2023-05-27T00:44:48;98780.44;;;8.40;80.08
49194;BME280;35029;50.804;12.866;2023-05-27T00:47:15;98772.16;;;8.35;80.34
49194;BME280;35029;50.804;12.866;2023-05-27T00:49:45;98770.16;;;8.37;79.58
49194;BME280;35029;50.804;12.866;2023-05-27T00:52:15;98778.09;;;8.37;80.32
49194;BME280;35029;50.804;12.866;2023-05-27T00:54:41;98772.75;;;8.28;80.06
49194;BME280;35029;50.804;12.866;2023-05-27T00:57:07;98778.56;;;8.32;81.14
49194;BME280;35029;50.804;12.866;2023-05-27T00:59:33;98787.78;;;8.28;80.80
49194;BME280;35029;50.804;12.866;2023-05-27T01:01:59;98768.91;;;8.23;80.84
49194;BME280;35029;50.804;12.866;2023-05-27T01:04:25;98791.56;;;8.25;81.29
49194;BME280;35029;50.804;12.866;2023-05-27T01:09:49;98791.09;;;8.30;80.34
49194;BME280;35029;50.804;12.866;2023-05-27T01:15:02;98786.44;;;8.24;80.59
49194;BME280;35029;50.804;12.866;2023-05-27T01:17:31;98760.34;;;8.03;80.52
49194;BME280;35029;50.804;12.866;2023-05-27T01:19:59;98779.28;;;8.16;80.60
49194;BME280;35029;50.804;12.866;2023-05-27T01:22:30;98777.41;;;8.08;81.84
49194;BME280;35029;50.804;12.866;2023-05-27T01:24:56;98779.69;;;8.03;81.58
49194;BME280;35029;50.804;12.866;2023-05-27T01:27:22;98781.63;;;8.01;79.96
49194;BME280;35029;50.804;12.866;2023-05-27T01:29:51;98786.84;;;7.93;81.58
49194;BME280;35029;50.804;12.866;2023-05-27T01:32:41;98757.03;;;7.74;82.34
49194;BME280;35029;50.804;12.866;2023-05-27T01:35:29;98782.19;;;7.87;82.50
49194;BME280;35029;50.804;12.866;2023-05-27T01:37:59;98779.25;;;7.90;82.30
49194;BME280;35029;50.804;12.866;2023-05-27T01:40:27;98769.44;;;7.82;81.90
49194;BME280;35029;50.804;12.866;2023-05-27T01:42:56;98781.81;;;7.82;81.93
49194;BME280;35029;50.804;12.866;2023-05-27T01:45:22;98771.34;;;7.72;82.18
49194;BME280;35029;50.804;12.866;2023-05-27T01:47:47;98776.41;;;7.65;82.28
49194;BME280;35029;50.804;12.866;2023-05-27T01:50:14;98772.91;;;7.65;82.74
49194;BME280;35029;50.804;12.866;2023-05-27T01:52:39;98773.53;;;7.58;83.33
49194;BME280;35029;50.804;12.866;2023-05-27T01:55:05;98752.94;;;7.44;82.65
49194;BME280;35029;50.804;12.866;2023-05-27T01:57:32;98770.66;;;7.52;82.61
49194;BME280;35029;50.804;12.866;2023-05-27T01:59:58;98762.22;;;7.48;82.66
49194;BME280;35029;50.804;12.866;2023-05-27T02:02:24;98761.53;;;7.46;83.63
49194;BME280;35029;50.804;12.866;2023-05-27T02:04:49;98766.66;;;7.48;82.81
49194;BME280;35029;50.804;12.866;2023-05-27T02:07:15;98732.38;;;7.30;83.91
49194;BME280;35029;50.804;12.866;2023-05-27T02:09:42;98731.25;;;7.32;82.59
49194;BME280;35029;50.804;12.866;2023-05-27T02:12:08;98757.84;;;7.39;82.84
49194;BME280;35029;50.804;12.866;2023-05-27T02:14:34;98759.09;;;7.35;81.77
49194;BME280;35029;50.804;12.866;2023-05-27T02:17:04;98757.16;;;7.37;82.42
49194;BME280;35029;50.804;12.866;2023-05-27T02:19:30;98764.38;;;7.35;82.44
49194;BME280;35029;50.804;12.866;2023-05-27T02:21:55;98756.34;;;7.36;82.90
49194;BME280;35029;50.804;12.866;2023-05-27T02:24:21;98751.81;;;7.28;83.04
49194;BME280;35029;50.804;12.866;2023-05-27T02:26:48;98756.69;;;7.23;83.56
49194;BME280;35029;50.804;12.866;2023-05-27T02:29:13;98734.31;;;7.09;83.76
49194;BME280;35029;50.804;12.866;2023-05-27T02:31:39;98739.03;;;7.06;83.18
49194;BME280;35029;50.804;12.866;2023-05-27T02:34:05;98752.63;;;7.11;83.59
49194;BME280;35029;50.804;12.866;2023-05-27T02:36:30;98747.34;;;7.11;83.58
49194;BME280;35029;50.804;12.866;2023-05-27T02:38:56;98758.03;;;7.09;83.43
49194;BME280;35029;50.804;12.866;2023-05-27T02:41:21;98753.72;;;7.08;83.43
49194;BME280;35029;50.804;12.866;2023-05-27T02:43:49;98761.78;;;7.07;83.88
49194;BME280;35029;50.804;12.866;2023-05-27T02:46:14;98755.56;;;7.08;84.26
49194;BME280;35029;50.804;12.866;2023-05-27T02:48:40;98741.59;;;6.98;83.43
49194;BME280;35029;50.804;12.866;2023-05-27T02:51:05;98756.13;;;7.02;83.30
49194;BME280;35029;50.804;12.866;2023-05-27T02:53:31;98759.31;;;7.05;84.22
49194;BME280;35029;50.804;12.866;2023-05-27T02:55:57;98755.06;;;6.94;83.79
49194;BME280;35029;50.804;12.866;2023-05-27T02:58:22;98757.31;;;6.89;83.61
49194;BME280;35029;50.804;12.866;2023-05-27T03:00:48;98756.88;;;6.94;83.63
49194;BME280;35029;50.804;12.866;2023-05-27T03:03:15;98750.63;;;6.95;82.75
49194;BME280;35029;50.804;12.866;2023-05-27T03:05:40;98737.00;;;6.72;83.96
49194;BME280;35029;50.804;12.866;2023-05-27T03:08:07;98730.09;;;6.71;84.03
49194;BME280;35029;50.804;12.866;2023-05-27T03:10:33;98755.63;;;6.88;83.55
49194;BME280;35029;50.804;12.866;2023-05-27T03:12:59;98758.59;;;6.85;83.65
49194;BME280;35029;50.804;12.866;2023-05-27T03:15:25;98760.41;;;6.85;83.37
49194;BME280;35029;50.804;12.866;2023-05-27T03:17:50;98751.94;;;6.81;84.77
49194;BME280;35029;50.804;12.866;2023-05-27T03:20:17;98758.28;;;6.88;84.05
49194;BME280;35029;50.804;12.866;2023-05-27T03:22:44;98744.34;;;6.78;84.38
49194;BME280;35029;50.804;12.866;2023-05-27T03:25:10;98746.31;;;6.66;85.55
49194;BME280;35029;50.804;12.866;2023-05-27T03:27:38;98738.41;;;6.66;85.61
49194;BME280;35029;50.804;12.866;2023-05-27T03:30:08;98754.16;;;6.86;85.52
49194;BME280;35029;50.804;12.866;2023-05-27T03:32:39;98741.41;;;6.81;85.58
49194;BME280;35029;50.804;12.866;2023-05-27T03:35:05;98749.69;;;6.86;84.45
49194;BME280;35029;50.804;12.866;2023-05-27T03:37:32;98761.63;;;6.90;83.91
49194;BME280;35029;50.804;12.866;2023-05-27T03:40:02;98735.38;;;6.71;84.63
49194;BME280;35029;50.804;12.866;2023-05-27T03:42:31;98755.03;;;6.76;85.87
49194;BME280;35029;50.804;12.866;2023-05-27T03:44:58;98724.31;;;6.57;85.22
49194;BME280;35029;50.804;12.866;2023-05-27T03:47:25;98758.88;;;6.82;84.95
49194;BME280;35029;50.804;12.866;2023-05-27T03:49:51;98762.72;;;6.88;85.54
49194;BME280;35029;50.804;12.866;2023-05-27T03:52:18;98761.38;;;6.84;85.55
49194;BME280;35029;50.804;12.866;2023-05-27T03:54:44;98765.63;;;6.94;86.63
49194;BME280;35029;50.804;12.866;2023-05-27T03:57:09;98751.53;;;6.86;86.26
49194;BME280;35029;50.804;12.866;2023-05-27T03:59:36;98761.06;;;6.87;87.14
49194;BME280;35029;50.804;12.866;2023-05-27T04:02:01;98762.59;;;6.89;88.23
49194;BME280;35029;50.804;12.866;2023-05-27T04:04:29;98763.84;;;6.85;87.86
49194;BME280;35029;50.804;12.866;2023-05-27T04:06:54;98764.78;;;6.94;88.82
49194;BME280;35029;50.804;12.866;2023-05-27T04:09:21;98769.16;;;7.03;87.93
49194;BME280;35029;50.804;12.866;2023-05-27T04:11:46;98763.09;;;7.21;88.04
49194;BME280;35029;50.804;12.866;2023-05-27T04:14:13;98754.66;;;7.17;88.42
49194;BME280;35029;50.804;12.866;2023-05-27T04:16:38;98749.47;;;7.25;88.43
49194;BME280;35029;50.804;12.866;2023-05-27T04:19:07;98761.25;;;7.49;89.21
49194;BME280;35029;50.804;12.866;2023-05-27T04:21:33;98762.38;;;7.47;88.62
49194;BME280;35029;50.804;12.866;2023-05-27T04:23:58;98757.78;;;7.49;88.44
49194;BME280;35029;50.804;12.866;2023-05-27T04:26:25;98761.25;;;7.49;89.42
49194;BME280;35029;50.804;12.866;2023-05-27T04:28:52;98765.94;;;7.55;89.70
49194;BME280;35029;50.804;12.866;2023-05-27T04:31:20;98764.19;;;7.64;89.90
49194;BME280;35029;50.804;12.866;2023-05-27T04:33:51;98761.78;;;7.71;90.39
49194;BME280;35029;50.804;12.866;2023-05-27T04:36:19;98759.19;;;7.79;89.55
49194;BME280;35029;50.804;12.866;2023-05-27T04:39:04;98757.44;;;7.88;90.00
49194;BME280;35029;50.804;12.866;2023-05-27T04:41:33;98743.03;;;7.82;90.91
49194;BME280;35029;50.804;12.866;2023-05-27T04:43:59;98761.81;;;7.97;90.72
49194;BME280;35029;50.804;12.866;2023-05-27T04:46:31;98755.59;;;8.06;90.89
49194;BME280;35029;50.804;12.866;2023-05-27T04:48:57;98740.13;;;8.11;91.54
49194;BME280;35029;50.804;12.866;2023-05-27T04:51:22;98756.75;;;8.30;91.07
49194;BME280;35029;50.804;12.866;2023-05-27T04:53:49;98760.94;;;8.41;92.00
49194;BME280;35029;50.804;12.866;2023-05-27T04:56:16;98735.81;;;8.37;91.90
49194;BME280;35029;50.804;12.866;2023-05-27T04:58:46;98751.97;;;8.60;92.46
49194;BME280;35029;50.804;12.866;2023-05-27T05:01:15;98765.91;;;8.70;92.44
49194;BME280;35029;50.804;12.866;2023-05-27T05:03:53;98760.84;;;8.77;92.37
49194;BME280;35029;50.804;12.866;2023-05-27T05:06:39;98766.00;;;8.87;93.64
49194;BME280;35029;50.804;12.866;2023-05-27T05:09:05;98769.00;;;8.92;93.72
49194;BME280;35029;50.804;12.866;2023-05-27T05:11:31;98763.75;;;9.08;93.71
49194;BME280;35029;50.804;12.866;2023-05-27T05:13:57;98758.31;;;9.18;93.21
49194;BME280;35029;50.804;12.866;2023-05-27T05:16:23;98743.09;;;9.20;93.64
49194;BME280;35029;50.804;12.866;2023-05-27T05:18:49;98764.47;;;9.35;92.77
49194;BME280;35029;50.804;12.866;2023-05-27T05:21:16;98758.22;;;9.44;93.69
49194;BME280;35029;50.804;12.866;2023-05-27T05:23:43;98771.28;;;9.62;92.98
49194;BME280;35029;50.804;12.866;2023-05-27T05:26:08;98768.69;;;9.71;91.17
49194;BME280;35029;50.804;12.866;2023-05-27T05:28:38;98778.78;;;9.84;91.05
49194;BME280;35029;50.804;12.866;2023-05-27T05:31:05;98778.78;;;9.92;90.06
49194;BME280;35029;50.804;12.866;2023-05-27T05:33:31;98777.78;;;9.93;88.19
49194;BME280;35029;50.804;12.866;2023-05-27T05:35:57;98778.94;;;9.98;87.97
49194;BME280;35029;50.804;12.866;2023-05-27T05:38:29;98770.31;;;10.05;87.53
49194;BME280;35029;50.804;12.866;2023-05-27T05:40:56;98788.19;;;10.27;86.66
49194;BME280;35029;50.804;12.866;2023-05-27T05:43:22;98780.94;;;10.38;87.10
49194;BME280;35029;50.804;12.866;2023-05-27T05:45:49;98774.94;;;10.44;87.03
49194;BME280;35029;50.804;12.866;2023-05-27T05:48:17;98778.09;;;10.47;84.63
49194;BME280;35029;50.804;12.866;2023-05-27T05:50:43;98786.50;;;10.59;83.48
49194;BME280;35029;50.804;12.866;2023-05-27T05:53:10;98790.31;;;10.65;82.69
49194;BME280;35029;50.804;12.866;2023-05-27T05:55:36;98797.91;;;10.68;81.88
49194;BME280;35029;50.804;12.866;2023-05-27T05:58:02;98790.09;;;10.75;81.05
49194;BME280;35029;50.804;12.866;2023-05-27T06:00:29;98787.44;;;10.83;80.58
49194;BME280;35029;50.804;12.866;2023-05-27T06:03:11;98795.53;;;10.90;80.87
49194;BME280;35029;50.804;12.866;2023-05-27T06:05:45;98787.03;;;10.94;79.01
49194;BME280;35029;50.804;12.866;2023-05-27T06:08:11;98796.78;;;11.10;80.97
49194;BME280;35029;50.804;12.866;2023-05-27T06:10:39;98799.75;;;11.15;81.03
49194;BME280;35029;50.804;12.866;2023-05-27T06:13:05;98795.38;;;11.23;80.57
49194;BME280;35029;50.804;12.866;2023-05-27T06:15:31;98801.66;;;11.30;80.85
49194;BME280;35029;50.804;12.866;2023-05-27T06:17:57;98798.13;;;11.38;80.51
49194;BME280;35029;50.804;12.866;2023-05-27T06:20:23;98799.25;;;11.43;78.09
49194;BME280;35029;50.804;12.866;2023-05-27T06:22:49;98808.16;;;11.50;78.57
49194;BME280;35029;50.804;12.866;2023-05-27T06:25:14;98801.16;;;11.58;79.31
49194;BME280;35029;50.804;12.866;2023-05-27T06:27:56;98801.28;;;11.64;76.53
49194;BME280;35029;50.804;12.866;2023-05-27T06:30:21;98793.66;;;11.61;75.91
49194;BME280;35029;50.804;12.866;2023-05-27T06:32:48;98798.34;;;11.82;77.08
49194;BME280;35029;50.804;12.866;2023-05-27T06:35:15;98805.72;;;11.95;77.66
49194;BME280;35029;50.804;12.866;2023-05-27T06:37:41;98807.34;;;12.05;76.47
49194;BME280;35029;50.804;12.866;2023-05-27T06:40:07;98811.16;;;12.02;71.03
49194;BME280;35029;50.804;12.866;2023-05-27T06:42:33;98805.25;;;12.15;72.82
49194;BME280;35029;50.804;12.866;2023-05-27T06:45:12;98788.03;;;12.11;72.87
49194;BME280;35029;50.804;12.866;2023-05-27T06:47:39;98806.47;;;12.27;72.38
49194;BME280;35029;50.804;12.866;2023-05-27T06:50:05;98801.63;;;12.46;73.67
49194;BME280;35029;50.804;12.866;2023-05-27T06:52:31;98800.09;;;12.51;70.39
49194;BME280;35029;50.804;12.866;2023-05-27T06:55:13;98795.63;;;12.67;71.61
49194;BME280;35029;50.804;12.866;2023-05-27T06:57:57;98797.00;;;12.63;69.71
49194;BME280;35029;50.804;12.866;2023-05-27T07:00:49;98802.75;;;12.66;67.62
49194;BME280;35029;50.804;12.866;2023-05-27T07:03:23;98786.97;;;12.80;68.46
49194;BME280;35029;50.804;12.866;2023-05-27T07:05:51;98796.06;;;12.85;67.03
49194;BME280;35029;50.804;12.866;2023-05-27T07:08:17;98795.34;;;12.92;68.13
49194;BME280;35029;50.804;12.866;2023-05-27T07:10:43;98791.28;;;12.96;66.00
49194;BME280;35029;50.804;12.866;2023-05-27T07:13:08;98786.16;;;13.09;67.75
49194;BME280;35029;50.804;12.866;2023-05-27T07:15:42;98782.00;;;13.07;64.97
49194;BME280;35029;50.804;12.866;2023-05-27T07:18:08;98791.19;;;13.04;62.24
49194;BME280;35029;50.804;12.866;2023-05-27T07:20:34;98783.03;;;12.91;62.65
49194;BME280;35029;50.804;12.866;2023-05-27T07:23:02;98786.34;;;13.08;64.02
49194;BME280;35029;50.804;12.866;2023-05-27T07:25:28;98779.34;;;13.22;67.98
49194;BME280;35029;50.804;12.866;2023-05-27T07:27:54;98774.28;;;13.42;65.23
49194;BME280;35029;50.804;12.866;2023-05-27T07:30:20;98784.41;;;13.53;63.85
49194;BME280;35029;50.804;12.866;2023-05-27T07:32:52;98751.19;;;13.34;61.37
49194;BME280;35029;50.804;12.866;2023-05-27T07:35:17;98775.38;;;13.69;61.90
49194;BME280;35029;50.804;12.866;2023-05-27T07:37:43;98778.25;;;13.74;62.17
49194;BME280;35029;50.804;12.866;2023-05-27T07:40:09;98771.78;;;13.83;62.05
49194;BME280;35029;50.804;12.866;2023-05-27T07:42:38;98784.38;;;13.90;59.03
49194;BME280;35029;50.804;12.866;2023-05-27T07:45:03;98756.59;;;13.77;59.41
49194;BME280;35029;50.804;12.866;2023-05-27T07:47:29;98772.31;;;13.72;60.29
49194;BME280;35029;50.804;12.866;2023-05-27T07:49:56;98766.13;;;13.93;62.07
49194;BME280;35029;50.804;12.866;2023-05-27T07:52:42;98772.22;;;14.09;61.10
49194;BME280;35029;50.804;12.866;2023-05-27T07:55:19;98780.91;;;14.17;60.00
49194;BME280;35029;50.804;12.866;2023-05-27T07:57:46;98771.78;;;14.05;58.43
49194;BME280;35029;50.804;12.866;2023-05-27T08:00:12;98768.34;;;14.11;58.51
49194;BME280;35029;50.804;12.866;2023-05-27T08:02:52;98775.78;;;14.16;57.71
49194;BME280;35029;50.804;12.866;2023-05-27T08:05:22;98765.88;;;14.10;59.03
49194;BME280;35029;50.804;12.866;2023-05-27T08:08:06;98762.38;;;14.37;62.81
49194;BME280;35029;50.804;12.866;2023-05-27T08:10:49;98765.16;;;14.51;58.41
49194;BME280;35029;50.804;12.866;2023-05-27T08:13:35;98768.97;;;14.42;57.36
49194;BME280;35029;50.804;12.866;2023-05-27T08:16:15;98765.06;;;14.37;58.10
49194;BME280;35029;50.804;12.866;2023-05-27T08:18:44;98757.97;;;14.51;60.48
49194;BME280;35029;50.804;12.866;2023-05-27T08:21:42;98759.97;;;14.78;60.21
49194;BME280;35029;50.804;12.866;2023-05-27T08:24:28;98751.47;;;14.96;57.00
49194;BME280;35029;50.804;12.866;2023-05-27T08:27:17;98743.13;;;15.19;58.58
49194;BME280;35029;50.804;12.866;2023-05-27T08:29:56;98749.72;;;15.36;56.56
49194;BME280;35029;50.804;12.866;2023-05-27T08:32:41;98736.22;;;15.45;52.26
49194;BME280;35029;50.804;12.866;2023-05-27T08:35:08;98729.84;;;15.59;53.70
49194;BME280;35029;50.804;12.866;2023-05-27T08:37:34;98726.97;;;15.67;53.49
49194;BME280;35029;50.804;12.866;2023-05-27T08:40:01;98736.44;;;15.63;51.47
49194;BME280;35029;50.804;12.866;2023-05-27T08:42:38;98718.75;;;15.69;50.75
49194;BME280;35029;50.804;12.866;2023-05-27T08:45:05;98726.97;;;15.67;51.23
49194;BME280;35029;50.804;12.866;2023-05-27T08:47:32;98724.94;;;15.89;53.38
49194;BME280;35029;50.804;12.866;2023-05-27T08:49:59;98703.16;;;15.86;52.76
49194;BME280;35029;50.804;12.866;2023-05-27T08:52:27;98712.41;;;15.83;50.56
49194;BME280;35029;50.804;12.866;2023-05-27T08:54:54;98721.03;;;15.85;49.62
49194;BME280;35029;50.804;12.866;2023-05-27T08:57:20;98701.69;;;15.77;51.29
49194;BME280;35029;50.804;12.866;2023-05-27T08:59:47;98715.69;;;15.92;50.50
49194;BME280;35029;50.804;12.866;2023-05-27T09:02:13;98707.50;;;15.87;51.02
49194;BME280;35029;50.804;12.866;2023-05-27T09:04:40;98687.34;;;15.91;51.46
49194;BME280;35029;50.804;12.866;2023-05-27T09:07:06;98695.56;;;15.83;50.05
49194;BME280;35029;50.804;12.866;2023-05-27T09:09:32;98696.38;;;16.03;52.41
49194;BME280;35029;50.804;12.866;2023-05-27T09:12:01;98697.41;;;16.02;50.76
49194;BME280;35029;50.804;12.866;2023-05-27T09:14:28;98704.75;;;16.41;51.80
49194;BME280;35029;50.804;12.866;2023-05-27T09:16:55;98690.16;;;16.36;49.08
49194;BME280;35029;50.804;12.866;2023-05-27T09:19:21;98683.28;;;16.61;51.94
49194;BME280;35029;50.804;12.866;2023-05-27T09:21:51;98690.84;;;16.77;52.75
49194;BME280;35029;50.804;12.866;2023-05-27T09:24:17;98697.16;;;16.37;49.01
49194;BME280;35029;50.804;12.866;2023-05-27T09:26:44;98702.06;;;16.41;49.29
49194;BME280;35029;50.804;12.866;2023-05-27T09:29:10;98671.97;;;16.59;51.88
49194;BME280;35029;50.804;12.866;2023-05-27T09:31:39;98683.38;;;16.93;52.42
49194;BME280;35029;50.804;12.866;2023-05-27T09:34:15;98684.78;;;17.02;49.08
49194;BME280;35029;50.804;12.866;2023-05-27T09:36:45;98680.28;;;16.96;48.01
49194;BME280;35029;50.804;12.866;2023-05-27T09:39:16;98685.41;;;16.97;48.77
49194;BME280;35029;50.804;12.866;2023-05-27T09:41:42;98684.25;;;17.25;50.43
49194;BME280;35029;50.804;12.866;2023-05-27T09:44:08;98677.97;;;17.38;47.39
49194;BME280;35029;50.804;12.866;2023-05-27T09:46:35;98680.66;;;17.38;47.66
49194;BME280;35029;50.804;12.866;2023-05-27T09:49:01;98673.72;;;17.30;45.00
49194;BME280;35029;50.804;12.866;2023-05-27T09:51:31;98669.28;;;17.43;48.69
49194;BME280;35029;50.804;12.866;2023-05-27T09:53:58;98675.53;;;17.62;47.84
49194;BME280;35029;50.804;12.866;2023-05-27T09:56:27;98665.97;;;17.72;49.19
49194;BME280;35029;50.804;12.866;2023-05-27T09:58:57;98657.38;;;17.89;49.04
49194;BME280;35029;50.804;12.866;2023-05-27T10:01:28;98668.38;;;18.06;48.13
49194;BME280;35029;50.804;12.866;2023-05-27T10:03:57;98651.34;;;18.19;48.14
49194;BME280;35029;50.804;12.866;2023-05-27T10:06:23;98659.09;;;18.27;48.01
49194;BME280;35029;50.804;12.866;2023-05-27T10:08:50;98644.53;;;18.16;43.84
49194;BME280;35029;50.804;12.866;2023-05-27T10:11:21;98643.13;;;17.88;43.50
49194;BME280;35029;50.804;12.866;2023-05-27T10:13:46;98644.91;;;18.01;45.37
49194;BME280;35029;50.804;12.866;2023-05-27T10:16:19;98631.81;;;18.30;46.90
49194;BME280;35029;50.804;12.866;2023-05-27T10:18:46;98626.56;;;18.54;46.36
49194;BME280;35029;50.804;12.866;2023-05-27T10:21:21;98628.31;;;18.79;46.60
49194;BME280;35029;50.804;12.866;2023-05-27T10:26:40;98622.38;;;19.07;45.52
49194;BME280;35029;50.804;12.866;2023-05-27T10:29:12;98609.25;;;18.99;44.63
49194;BME280;35029;50.804;12.866;2023-05-27T10:31:50;98626.66;;;18.96;43.35
49194;BME280;35029;50.804;12.866;2023-05-27T10:34:17;98555.97;;;18.35;42.34
49194;BME280;35029;50.804;12.866;2023-05-27T10:36:46;98615.63;;;18.86;42.42
49194;BME280;35029;50.804;12.866;2023-05-27T10:39:14;98597.91;;;18.66;42.66
49194;BME280;35029;50.804;12.866;2023-05-27T10:41:54;98615.41;;;18.87;44.19
49194;BME280;35029;50.804;12.866;2023-05-27T10:44:31;98610.50;;;19.15;43.82
49194;BME280;35029;50.804;12.866;2023-05-27T10:47:11;98600.81;;;19.25;42.15
49194;BME280;35029;50.804;12.866;2023-05-27T10:49:39;98609.84;;;19.55;43.60
49194;BME280;35029;50.804;12.866;2023-05-27T10:52:09;98603.44;;;19.80;43.64
49194;BME280;35029;50.804;12.866;2023-05-27T10:54:46;98609.03;;;19.78;42.32
49194;BME280;35029;50.804;12.866;2023-05-27T10:57:12;98608.06;;;19.37;41.23
49194;BME280;35029;50.804;12.866;2023-05-27T10:59:53;98609.13;;;19.36;42.17
49194;BME280;35029;50.804;12.866;2023-05-27T11:02:19;98607.25;;;19.48;41.66
49194;BME280;35029;50.804;12.866;2023-05-27T11:04:46;98602.22;;;19.40;42.37
49194;BME280;35029;50.804;12.866;2023-05-27T11:07:17;98599.34;;;19.65;42.49
49194;BME280;35029;50.804;12.866;2023-05-27T11:09:46;98596.50;;;19.36;39.54
49194;BME280;35029;50.804;12.866;2023-05-27T11:12:21;98601.19;;;19.41;39.58
49194;BME280;35029;50.804;12.866;2023-05-27T11:14:52;98590.31;;;19.48;42.62
49194;BME280;35029;50.804;12.866;2023-05-27T11:17:19;98591.53;;;19.87;43.03
49194;BME280;35029;50.804;12.866;2023-05-27T11:19:45;98575.56;;;20.21;43.59
49194;BME280;35029;50.804;12.866;2023-05-27T11:22:11;98587.13;;;20.34;43.70
49194;BME280;35029;50.804;12.866;2023-05-27T11:24:38;98587.97;;;20.22;40.55
49194;BME280;35029;50.804;12.866;2023-05-27T11:27:11;98584.25;;;20.00;38.42
49194;BME280;35029;50.804;12.866;2023-05-27T11:29:37;98553.09;;;20.16;41.31
49194;BME280;35029;50.804;12.866;2023-05-27T11:32:07;98576.84;;;20.71;42.78
49194;BME280;35029;50.804;12.866;2023-05-27T11:34:34;98567.72;;;20.89;42.06
49194;BME280;35029;50.804;12.866;2023-05-27T11:37:04;98578.72;;;21.00;38.50
49194;BME280;35029;50.804;12.866;2023-05-27T11:39:30;98572.81;;;21.20;43.24
49194;BME280;35029;50.804;12.866;2023-05-27T11:41:56;98562.38;;;21.23;38.94
49194;BME280;35029;50.804;12.866;2023-05-27T11:44:24;98533.34;;;20.80;38.33
49194;BME280;35029;50.804;12.866;2023-05-27T11:46:52;98556.94;;;20.89;40.57
49194;BME280;35029;50.804;12.866;2023-05-27T11:49:19;98548.72;;;21.13;42.32
49194;BME280;35029;50.804;12.866;2023-05-27T11:51:49;98560.75;;;21.39;42.00
49194;BME280;35029;50.804;12.866;2023-05-27T11:54:18;98557.63;;;21.48;40.86
49194;BME280;35029;50.804;12.866;2023-05-27T11:56:46;98551.78;;;21.34;39.62
49194;BME280;35029;50.804;12.866;2023-05-27T11:59:12;98546.53;;;21.10;38.94
49194;BME280;35029;50.804;12.866;2023-05-27T12:01:42;98549.69;;;21.24;39.69
49194;BME280;35029;50.804;12.866;2023-05-27T12:04:08;98543.00;;;21.60;42.28
49194;BME280;35029;50.804;12.866;2023-05-27T12:06:34;98550.44;;;21.36;38.95
49194;BME280;35029;50.804;12.866;2023-05-27T12:09:02;98544.66;;;21.10;39.02
49194;BME280;35029;50.804;12.866;2023-05-27T12:11:28;98545.75;;;21.49;39.97
49194;BME280;35029;50.804;12.866;2023-05-27T12:13:54;98518.31;;;21.69;40.08
49194;BME280;35029;50.804;12.866;2023-05-27T12:16:20;98540.22;;;21.72;36.15
49194;BME280;35029;50.804;12.866;2023-05-27T12:18:45;98535.13;;;21.76;40.19
49194;BME280;35029;50.804;12.866;2023-05-27T12:21:11;98522.78;;;21.80;38.44
49194;BME280;35029;50.804;12.866;2023-05-27T12:23:38;98529.00;;;21.81;38.24
49194;BME280;35029;50.804;12.866;2023-05-27T12:26:03;98511.41;;;22.00;39.10
49194;BME280;35029;50.804;12.866;2023-05-27T12:28:29;98524.63;;;21.97;39.07
49194;BME280;35029;50.804;12.866;2023-05-27T12:30:55;98530.53;;;22.16;38.23
49194;BME280;35029;50.804;12.866;2023-05-27T12:33:20;98518.50;;;22.28;38.50
49194;BME280;35029;50.804;12.866;2023-05-27T12:35:46;98521.16;;;22.23;37.28
49194;BME280;35029;50.804;12.866;2023-05-27T12:38:12;98511.31;;;22.34;38.45
49194;BME280;35029;50.804;12.866;2023-05-27T12:40:37;98513.91;;;22.29;38.75
49194;BME280;35029;50.804;12.866;2023-05-27T12:43:03;98505.81;;;22.51;38.49
49194;BME280;35029;50.804;12.866;2023-05-27T12:45:30;98507.09;;;22.71;38.44
49194;BME280;35029;50.804;12.866;2023-05-27T12:47:55;98498.88;;;22.88;36.16
49194;BME280;35029;50.804;12.866;2023-05-27T12:50:21;98504.31;;;22.93;36.37
49194;BME280;35029;50.804;12.866;2023-05-27T12:52:48;98480.66;;;22.45;34.13
49194;BME280;35029;50.804;12.866;2023-05-27T12:55:16;98502.63;;;22.32;36.51
49194;BME280;35029;50.804;12.866;2023-05-27T12:57:47;98471.88;;;22.11;36.13
49194;BME280;35029;50.804;12.866;2023-05-27T13:00:14;98485.44;;;22.16;37.30
49194;BME280;35029;50.804;12.866;2023-05-27T13:02:40;98476.09;;;22.29;37.43
49194;BME280;35029;50.804;12.866;2023-05-27T13:05:06;98497.88;;;22.39;36.06
49194;BME280;35029;50.804;12.866;2023-05-27T13:07:36;98490.47;;;22.57;34.85
49194;BME280;35029;50.804;12.866;2023-05-27T13:10:04;98489.03;;;22.76;35.50